createdAt,value
2023-04-12T00:03:03.361Z,77.76
2023-04-12T00:07:12.038Z,77.73
2023-04-12T00:11:15.596Z,78.10
2023-04-12T00:15:19.231Z,77.85
2023-04-12T00:19:22.314Z,77.77
2023-04-12T00:23:26.610Z,77.67
2023-04-12T00:27:29.445Z,78.22
2023-04-12T00:31:32.445Z,77.89
2023-04-12T00:35:39.166Z,77.93
2023-04-12T00:39:43.780Z,78.15
2023-04-12T00:43:47.251Z,78.02
2023-04-12T00:47:50.387Z,77.86
2023-04-12T00:51:54.154Z,77.99
2023-04-12T00:55:59.530Z,78.31
2023-04-12T01:00:04.233Z,78.28
2023-04-12T01:04:07.814Z,77.95
2023-04-12T01:08:20.060Z,78.06
2023-04-12T01:12:37.259Z,77.91
2023-04-12T01:16:52.035Z,78.03
2023-04-12T01:21:04.742Z,77.87
2023-04-12T01:25:26.222Z,78.35
2023-04-12T01:29:32.305Z,78.38
2023-04-12T01:33:37.759Z,78.49
2023-04-12T01:37:42.089Z,79.58
2023-04-12T01:41:48.930Z,80.27
2023-04-12T01:45:53.185Z,81.66
2023-04-12T01:50:04.711Z,83.05
2023-04-12T01:54:11.731Z,84.62
2023-04-12T01:58:18.269Z,86.12
2023-04-12T02:02:22.921Z,87.67
2023-04-12T02:06:27.601Z,88.61
2023-04-12T02:10:30.964Z,89.38
2023-04-12T02:14:33.982Z,90.47
2023-04-12T02:18:41.581Z,91.86
2023-04-12T02:22:47.218Z,92.97
2023-04-12T02:26:50.676Z,94.34
2023-04-12T02:30:54.169Z,94.78
2023-04-12T02:35:00.316Z,95.48
2023-04-12T02:39:03.881Z,95.56
2023-04-12T02:43:10.649Z,96.07
2023-04-12T02:47:17.858Z,96.97
2023-04-12T02:51:28.064Z,97.41
2023-04-12T02:55:31.520Z,98.05
2023-04-12T02:59:40.383Z,98.30
2023-04-12T03:03:49.684Z,98.45
2023-04-12T03:08:11.635Z,99.29
2023-04-12T03:12:23.509Z,99.06
2023-04-12T03:17:02.098Z,99.96
2023-04-12T03:21:05.656Z,100.00
2023-04-12T03:25:12.650Z,100.00
2023-04-12T03:29:22.074Z,100.00
2023-04-12T03:33:29.258Z,100.00
2023-04-12T03:37:37.700Z,100.00
2023-04-12T03:41:41.992Z,100.00
2023-04-12T03:45:45.445Z,100.00
2023-04-12T03:50:01.778Z,100.00
2023-04-12T03:54:12.881Z,100.00
2023-04-12T03:58:28.077Z,100.00
2023-04-12T04:02:32.361Z,100.00
2023-04-12T04:06:35.718Z,100.00
2023-04-12T04:10:55.424Z,100.00
2023-04-12T04:15:35.595Z,100.00
2023-04-12T04:20:13.513Z,100.00
2023-04-12T04:24:53.314Z,100.00
2023-04-12T04:29:29.131Z,100.00
2023-04-12T04:33:57.051Z,100.00
2023-04-12T04:38:06.291Z,100.00
2023-04-12T04:42:09.919Z,100.00
2023-04-12T04:46:21.181Z,100.00
2023-04-12T04:50:28.104Z,100.00
2023-04-12T04:54:33.068Z,100.00
2023-04-12T04:58:37.278Z,100.00
2023-04-12T05:02:43.031Z,100.00
2023-04-12T05:06:51.361Z,100.00
2023-04-12T05:10:58.831Z,100.00
2023-04-12T05:15:11.732Z,100.00
2023-04-12T05:19:15.888Z,100.00
2023-04-12T05:23:21.779Z,100.00
2023-04-12T05:27:27.677Z,100.00
2023-04-12T05:31:31.210Z,100.00
2023-04-12T05:35:38.199Z,100.00
2023-04-12T05:39:42.693Z,100.00
2023-04-12T05:43:47.084Z,100.00
2023-04-12T05:47:51.172Z,100.00
2023-04-12T05:51:54.026Z,100.00
2023-04-12T05:55:59.379Z,100.00
2023-04-12T06:00:07.021Z,100.00
2023-04-12T06:04:15.819Z,100.00
2023-04-12T06:08:21.450Z,100.00
2023-04-12T06:12:25.910Z,100.00
2023-04-12T06:16:31.331Z,100.00
2023-04-12T06:20:45.846Z,100.00
2023-04-12T06:24:49.036Z,100.00
2023-04-12T06:28:53.971Z,100.00
2023-04-12T06:32:57.753Z,100.00
2023-04-12T06:37:01.137Z,100.00
2023-04-12T06:41:04.269Z,100.00
2023-04-12T06:45:10.364Z,100.00
2023-04-12T06:49:13.445Z,100.00
2023-04-12T06:53:16.790Z,100.00
2023-04-12T06:57:20.721Z,100.00
2023-04-12T07:01:25.444Z,100.00
2023-04-12T07:05:30.354Z,100.00
2023-04-12T07:09:38.975Z,100.00
2023-04-12T07:13:47.649Z,100.00
2023-04-12T07:17:52.345Z,100.00
2023-04-12T07:22:00.977Z,100.00
2023-04-12T07:26:04.132Z,100.00
2023-04-12T07:30:08.508Z,100.00
2023-04-12T07:34:13.073Z,100.00
2023-04-12T07:38:16.978Z,100.00
2023-04-12T07:42:20.976Z,100.00
2023-04-12T07:46:24.038Z,100.00
2023-04-12T07:50:28.914Z,100.00
2023-04-12T07:54:32.707Z,100.00
2023-04-12T07:58:35.863Z,100.00
2023-04-12T08:02:50.776Z,100.00
2023-04-12T08:07:09.473Z,100.00
2023-04-12T08:11:14.528Z,100.00
2023-04-12T08:15:18.439Z,100.00
2023-04-12T08:19:21.433Z,100.00
2023-04-12T08:23:26.715Z,100.00
2023-04-12T08:27:31.022Z,100.00
2023-04-12T08:31:36.194Z,100.00
2023-04-12T08:35:40.947Z,100.00
2023-04-12T08:39:45.558Z,100.00
2023-04-12T08:43:48.761Z,100.00
2023-04-12T08:47:52.247Z,100.00
2023-04-12T08:51:55.597Z,100.00
2023-04-12T08:56:01.992Z,100.00
2023-04-12T09:00:16.678Z,100.00
2023-04-12T09:04:19.537Z,100.00
2023-04-12T09:08:38.294Z,100.00
2023-04-12T09:12:50.231Z,100.00
2023-04-12T09:17:00.581Z,100.00
2023-04-12T09:21:13.057Z,100.00
2023-04-12T09:25:18.220Z,100.00
2023-04-12T09:29:28.216Z,100.00
2023-04-12T09:33:36.216Z,100.00
2023-04-12T09:37:39.601Z,100.00
2023-04-12T09:41:48.203Z,100.00
2023-04-12T09:46:11.723Z,100.00
2023-04-12T09:50:34.042Z,100.00
2023-04-12T09:54:57.502Z,100.00
2023-04-12T09:59:23.740Z,100.00
2023-04-12T10:03:44.773Z,100.00
2023-04-12T10:07:48.432Z,100.00
2023-04-12T10:11:53.249Z,100.00
2023-04-12T10:15:56.717Z,100.00
2023-04-12T10:20:01.150Z,100.00
2023-04-12T10:24:03.946Z,100.00
2023-04-12T10:28:17.495Z,100.00
2023-04-12T10:32:22.321Z,100.00
2023-04-12T10:36:53.530Z,100.00
2023-04-12T10:41:24.830Z,100.00
2023-04-12T10:45:37.842Z,100.00
2023-04-12T10:49:40.831Z,100.00
2023-04-12T10:53:46.638Z,100.00
2023-04-12T10:57:55.843Z,100.00
2023-04-12T11:02:10.540Z,100.00
2023-04-12T11:10:47.271Z,100.00
2023-04-12T11:15:06.188Z,100.00
2023-04-12T11:19:20.096Z,100.00
2023-04-12T11:23:23.051Z,100.00
2023-04-12T11:27:28.142Z,100.00
2023-04-12T11:31:31.249Z,100.00
2023-04-12T11:35:33.921Z,100.00
2023-04-12T11:39:37.496Z,100.00
2023-04-12T11:43:42.515Z,100.00
2023-04-12T11:47:45.525Z,100.00
2023-04-12T11:51:49.658Z,100.00
2023-04-12T11:55:56.015Z,100.00
2023-04-12T12:00:00.886Z,100.00
2023-04-12T12:04:04.456Z,100.00
2023-04-12T12:08:09.077Z,100.00
2023-04-12T12:12:12.860Z,100.00
2023-04-12T12:16:17.503Z,100.00
2023-04-12T12:20:21.420Z,97.67
2023-04-12T12:24:24.240Z,95.17
2023-04-12T12:28:27.097Z,95.04
2023-04-12T12:32:35.134Z,96.28
2023-04-12T12:36:38.867Z,95.48
2023-04-12T12:40:42.266Z,94.32
2023-04-12T12:44:44.901Z,92.09
2023-04-12T12:48:50.211Z,88.06
2023-04-12T12:52:53.542Z,82.08
2023-04-12T12:56:56.755Z,81.74
2023-04-12T13:00:59.397Z,81.05
2023-04-12T13:05:03.972Z,82.22
2023-04-12T13:09:07.378Z,81.54
2023-04-12T13:13:15.958Z,75.96
2023-04-12T13:17:52.572Z,78.34
2023-04-12T13:22:38.627Z,73.42
2023-04-12T13:27:29.020Z,79.62
2023-04-12T13:32:00.019Z,79.61
2023-04-12T13:36:49.050Z,86.88
2023-04-12T13:41:22.765Z,91.25
2023-04-12T13:45:47.740Z,94.49
2023-04-12T13:50:12.786Z,98.76
2023-04-12T13:54:19.815Z,100.00
2023-04-12T13:58:22.746Z,100.00
2023-04-12T14:02:27.523Z,100.00
2023-04-12T14:06:34.022Z,100.00
2023-04-12T14:10:36.873Z,100.00
2023-04-12T14:14:39.626Z,100.00
2023-04-12T14:18:42.763Z,100.00
2023-04-12T14:22:46.947Z,100.00
2023-04-12T14:26:50.388Z,100.00
2023-04-12T14:30:53.667Z,100.00
2023-04-12T14:34:57.712Z,100.00
2023-04-12T14:39:06.389Z,100.00
2023-04-12T14:43:10.742Z,100.00
2023-04-12T14:47:20.884Z,100.00
2023-04-12T14:51:30.469Z,100.00
2023-04-12T14:55:34.916Z,100.00
2023-04-12T14:59:37.854Z,100.00
2023-04-12T15:03:42.296Z,100.00
2023-04-12T15:07:46.317Z,100.00
2023-04-12T15:11:56.150Z,100.00
2023-04-12T15:16:30.497Z,100.00
2023-04-12T15:20:33.231Z,100.00
2023-04-12T15:24:36.023Z,100.00
2023-04-12T15:28:43.428Z,100.00
2023-04-12T15:32:46.956Z,100.00
2023-04-12T15:36:51.906Z,100.00
2023-04-12T15:40:57.225Z,100.00
2023-04-12T15:45:08.101Z,100.00
2023-04-12T15:49:25.341Z,100.00
2023-04-12T15:53:30.242Z,100.00
2023-04-12T15:57:34.263Z,100.00
2023-04-12T16:01:47.199Z,100.00
2023-04-12T16:06:07.887Z,100.00
2023-04-12T16:10:15.684Z,100.00
2023-04-12T16:14:18.891Z,100.00
2023-04-12T16:18:24.317Z,100.00
2023-04-12T16:22:27.637Z,100.00
2023-04-12T16:26:40.180Z,100.00
2023-04-12T16:30:50.612Z,100.00
2023-04-12T16:35:00.965Z,100.00
2023-04-12T16:39:11.358Z,100.00
2023-04-12T16:43:22.294Z,100.00
2023-04-12T16:47:26.868Z,100.00
2023-04-12T16:51:36.788Z,100.00
2023-04-12T16:55:43.357Z,100.00
2023-04-12T16:59:46.286Z,100.00
2023-04-12T17:03:54.911Z,100.00
2023-04-12T17:07:59.096Z,100.00
2023-04-12T17:12:01.779Z,100.00
2023-04-12T17:16:04.809Z,100.00
2023-04-12T17:20:11.648Z,100.00
2023-04-12T17:24:16.546Z,100.00
2023-04-12T17:28:19.634Z,100.00
2023-04-12T17:32:22.661Z,100.00
2023-04-12T17:36:25.686Z,100.00
2023-04-12T17:40:29.831Z,100.00
2023-04-12T17:44:32.857Z,100.00
2023-04-12T17:48:35.827Z,100.00
2023-04-12T17:52:38.619Z,100.00
2023-04-12T17:56:42.686Z,100.00
2023-04-12T18:00:45.445Z,100.00
2023-04-12T18:04:48.371Z,100.00
2023-04-12T18:08:52.563Z,100.00
2023-04-12T18:12:56.725Z,100.00
2023-04-12T18:16:59.422Z,100.00
2023-04-12T18:21:04.550Z,100.00
2023-04-12T18:25:08.044Z,100.00
2023-04-12T18:29:14.485Z,100.00
2023-04-12T18:33:17.948Z,100.00
2023-04-12T18:37:20.846Z,100.00
2023-04-12T18:41:23.552Z,100.00
2023-04-12T18:45:27.653Z,100.00
2023-04-12T18:49:31.250Z,100.00
2023-04-12T18:53:34.936Z,100.00
2023-04-12T18:57:37.661Z,100.00
2023-04-12T19:01:41.746Z,100.00
2023-04-12T19:05:45.445Z,100.00
2023-04-12T19:09:48.195Z,100.00
2023-04-12T19:13:50.867Z,100.00
2023-04-12T19:17:54.970Z,100.00
2023-04-12T19:21:58.188Z,100.00
2023-04-12T19:26:00.925Z,100.00
2023-04-12T19:30:04.433Z,100.00
2023-04-12T19:34:08.546Z,100.00
2023-04-12T19:38:11.253Z,100.00
2023-04-12T19:42:15.727Z,100.00
2023-04-12T19:46:18.585Z,100.00
2023-04-12T19:50:23.078Z,100.00
2023-04-12T19:54:26.252Z,100.00
2023-04-12T19:58:29.978Z,100.00
2023-04-12T20:02:33.254Z,100.00
2023-04-12T20:06:37.511Z,100.00
2023-04-12T20:10:40.668Z,100.00
2023-04-12T20:14:43.348Z,100.00
2023-04-12T20:18:46.833Z,100.00
2023-04-12T20:22:52.728Z,100.00
2023-04-12T20:26:55.429Z,100.00
2023-04-12T20:30:58.973Z,100.00
2023-04-12T20:35:02.642Z,100.00
2023-04-12T20:39:06.743Z,100.00
2023-04-12T20:43:10.453Z,100.00
2023-04-12T20:47:13.222Z,100.00
2023-04-12T20:51:16.936Z,100.00
2023-04-12T20:55:22.342Z,100.00
2023-04-12T20:59:25.049Z,100.00
2023-04-12T21:03:28.826Z,100.00
2023-04-12T21:07:32.013Z,100.00
2023-04-12T21:11:36.800Z,100.00
2023-04-12T21:15:40.283Z,100.00
2023-04-12T21:19:44.835Z,100.00
2023-04-12T21:23:47.698Z,100.00
2023-04-12T21:27:52.983Z,100.00
2023-04-12T21:31:56.155Z,100.00
2023-04-12T21:35:59.028Z,100.00
2023-04-12T21:40:01.748Z,100.00
2023-04-12T21:44:05.841Z,100.00
2023-04-12T21:48:08.594Z,100.00
2023-04-12T21:52:11.246Z,100.00
2023-04-12T21:56:13.968Z,100.00
2023-04-12T22:00:18.545Z,100.00
2023-04-12T22:04:21.368Z,100.00
2023-04-12T22:08:24.053Z,100.00
2023-04-12T22:12:27.215Z,100.00
2023-04-12T22:16:32.804Z,100.00
2023-04-12T22:20:35.506Z,100.00
2023-04-12T22:24:39.062Z,100.00
2023-04-12T22:28:43.517Z,100.00
2023-04-12T22:32:47.571Z,100.00
2023-04-12T22:36:51.823Z,100.00
2023-04-12T22:41:02.211Z,100.00
2023-04-12T22:45:07.515Z,100.00
2023-04-12T22:49:12.303Z,100.00
2023-04-12T22:53:15.792Z,100.00
2023-04-12T22:57:18.589Z,100.00
2023-04-12T23:01:21.546Z,100.00
2023-04-12T23:05:26.172Z,100.00
2023-04-12T23:09:29.444Z,100.00
2023-04-12T23:13:34.103Z,100.00
2023-04-12T23:17:37.295Z,100.00
2023-04-12T23:21:41.546Z,100.00
2023-04-12T23:25:45.294Z,100.00
2023-04-12T23:29:47.960Z,100.00
2023-04-12T23:33:50.653Z,100.00
2023-04-12T23:37:56.009Z,100.00
2023-04-12T23:41:59.183Z,100.00
2023-04-12T23:46:03.068Z,100.00
2023-04-12T23:50:07.422Z,100.00
2023-04-12T23:54:11.837Z,100.00
2023-04-12T23:58:14.938Z,100.00
